Time;durP1;ratioP1;P1;durP2;ratioP2;P2;SDS_P1;SDS_P2;PMS_P1;PMS_P2;Temp;Humidity;BMP_temperature;BMP_pressure;BME280_temperature;BME280_humidity;BME280_pressure;Samples;Min_cycle;Max_cycle;Signal;HPM_P1;HPM_P2
2023/07/06 00:01:04;;;;;;;27.88;24.95;;;589.10;2432.00;;;;;;5072317;28;20045;-63
2023/07/06 00:03:32;;;;;;;27.35;24.63;;;589.20;2432.00;;;;;;5072556;28;20021;-61
2023/07/06 00:06:00;;;;;;;30.25;25.98;;;589.10;2432.00;;;;;;5072886;28;20118;-66
2023/07/06 00:08:29;;;;;;;26.30;23.48;;;588.80;2432.00;;;;;;5072695;28;20394;-61
2023/07/06 00:10:55;;;;;;;27.85;25.13;;;588.90;2432.00;;;;;;5072493;28;20390;-61
2023/07/06 00:13:21;;;;;;;25.73;23.23;;;588.90;2432.00;;;;;;5072767;28;20017;-61
2023/07/06 00:15:48;;;;;;;29.15;26.13;;;588.80;2432.00;;;;;;5072750;28;20024;-61
2023/07/06 00:18:15;;;;;;;26.25;23.65;;;588.80;2432.00;;;;;;5072812;28;20020;-60
2023/07/06 00:20:41;;;;;;;28.23;25.23;;;588.90;2432.00;;;;;;5072321;28;20501;-61
2023/07/06 00:23:11;;;;;;;27.85;24.92;;;588.80;2432.00;;;;;;5072247;28;20459;-62
2023/07/06 00:25:38;;;;;;;27.27;24.40;;;588.80;2432.00;;;;;;5072671;28;20502;-61
2023/07/06 00:28:04;;;;;;;36.67;25.60;;;588.80;2432.00;;;;;;5072362;28;20021;-64
2023/07/06 00:30:53;;;;;;;26.10;23.70;;;588.80;2432.00;;;;;;5072763;28;20027;-61
2023/07/06 00:33:18;;;;;;;25.73;23.00;;;564.10;2432.00;;;;;;5072266;28;20421;-61
2023/07/06 00:35:47;;;;;;;27.35;24.60;;;564.10;2432.00;;;;;;5072142;28;20024;-61
2023/07/06 00:38:18;;;;;;;26.92;24.30;;;564.10;2432.00;;;;;;5072245;28;20052;-67
2023/07/06 00:40:50;;;;;;;28.63;24.33;;;564.10;2432.00;;;;;;5072373;28;20119;-62
2023/07/06 00:43:21;;;;;;;27.00;24.50;;;564.00;2432.00;;;;;;5071890;28;20058;-59
2023/07/06 00:45:52;;;;;;;27.80;24.70;;;564.00;2432.00;;;;;;5072199;28;20112;-61
2023/07/06 00:48:26;;;;;;;27.70;24.98;;;564.00;2432.00;;;;;;5071968;28;20028;-61
2023/07/06 00:50:56;;;;;;;32.95;29.45;;;564.00;2432.00;;;;;;5072153;28;20028;-64
2023/07/06 00:53:27;;;;;;;31.30;28.30;;;564.00;2432.00;;;;;;5070949;28;20478;-66
2023/07/06 00:55:57;;;;;;;31.73;28.50;;;563.90;2432.00;;;;;;5072040;28;20032;-61
2023/07/06 00:58:33;;;;;;;32.90;29.58;;;563.80;2432.00;;;;;;5072380;28;20123;-61
2023/07/06 01:01:03;;;;;;;33.40;29.75;;;563.70;2432.00;;;;;;5074218;28;20094;-61
2023/07/06 01:03:31;;;;;;;33.35;29.92;;;563.70;2432.00;;;;;;5075358;28;20024;-61
2023/07/06 01:06:03;;;;;;;32.97;28.63;;;563.70;2432.00;;;;;;5076530;28;20350;-61
2023/07/06 01:08:30;;;;;;;33.08;29.73;;;563.70;2432.00;;;;;;5075346;28;20029;-61
2023/07/06 01:10:59;;;;;;;35.10;30.85;;;563.60;2432.00;;;;;;5075871;28;20382;-60
2023/07/06 01:13:25;;;;;;;34.08;30.60;;;563.60;2432.00;;;;;;5075912;28;20174;-62
2023/07/06 01:16:04;;;;;;;34.95;31.35;;;563.50;2432.00;;;;;;5075188;28;20037;-60
2023/07/06 01:18:43;;;;;;;30.90;27.92;;;563.60;2432.00;;;;;;5075613;28;20020;-61
2023/07/06 01:21:40;;;;;;;34.83;31.42;;;563.50;2432.00;;;;;;5075367;28;20045;-61
2023/07/06 01:24:31;;;;;;;35.90;32.08;;;563.50;2432.00;;;;;;5074675;28;20020;-61
2023/07/06 01:27:44;;;;;;;33.78;30.30;;;563.40;2432.00;;;;;;5075303;28;20398;-62
2023/07/06 01:30:10;;;;;;;36.45;29.45;;;563.40;2432.00;;;;;;5052964;28;20055;-61
2023/07/06 01:32:47;;;;;;;35.85;29.92;;;563.40;2432.00;;;;;;5053024;28;20040;-63
2023/07/06 01:35:25;;;;;;;31.15;28.05;;;563.40;2432.00;;;;;;5053294;28;20033;-61
2023/07/06 01:41:14;;;;;;;33.30;29.95;;;;;;;;;;5052880;28;20052;-61
2023/07/06 01:43:41;;;;;;;32.55;29.10;;;;;;;;;;5049617;28;20128;-61
2023/07/06 01:46:07;;;;;;;31.42;28.42;;;;;;;;;;5047688;28;20068;-63
2023/07/06 01:48:34;;;;;;;31.98;27.75;;;;;;;;;;5045992;28;20029;-61
2023/07/06 01:51:18;;;;;;;28.90;25.55;;;;;;;;;;5047091;28;20255;-61
2023/07/06 01:53:54;;;;;;;31.60;27.27;;;;;;;;;;5048344;28;20380;-62
2023/07/06 01:56:24;;;;;;;31.30;28.33;;;;;;;;;;5048095;28;20036;-62
2023/07/06 01:58:53;;;;;;;31.45;26.70;;;;;;;;;;5047910;28;20538;-63
2023/07/06 02:01:22;;;;;;;27.60;24.92;;;;;;;;;;5047837;28;20044;-63
2023/07/06 02:03:50;;;;;;;30.05;26.85;;;;;;;;;;5048063;28;20061;-62
2023/07/06 02:06:17;;;;;;;29.75;26.75;;;;;;;;;;5044703;28;20099;-62
2023/07/06 02:08:43;;;;;;;31.08;27.67;;;563.70;2432.00;;;;;;5060522;28;20031;-62
2023/07/06 02:11:18;;;;;;;26.58;23.92;;;563.60;2432.00;;;;;;5070663;28;20442;-62
2023/07/06 02:13:44;;;;;;;28.27;25.42;;;563.60;2432.00;;;;;;5070282;28;20067;-63
2023/07/06 02:16:10;;;;;;;26.40;23.80;;;563.60;2432.00;;;;;;5070858;28;20374;-62
2023/07/06 02:18:36;;;;;;;27.88;25.00;;;563.60;2432.00;;;;;;5070713;28;20055;-62
2023/07/06 02:21:03;;;;;;;26.95;24.23;;;563.70;2432.00;;;;;;5069987;28;20040;-64
2023/07/06 02:23:30;;;;;;;27.40;24.58;;;563.70;2432.00;;;;;;5070616;28;20025;-62
2023/07/06 02:25:56;;;;;;;30.17;26.73;;;563.70;2432.00;;;;;;5070175;28;20024;-61
2023/07/06 02:28:22;;;;;;;29.33;25.73;;;563.60;2432.00;;;;;;5070392;28;20020;-62
2023/07/06 02:30:49;;;;;;;26.15;23.33;;;563.60;2432.00;;;;;;5053073;28;20057;-61
2023/07/06 02:33:16;;;;;;;27.50;24.75;;;563.60;2432.00;;;;;;5045298;28;20028;-61
2023/07/06 02:35:46;;;;;;;28.27;25.27;;;563.50;2432.00;;;;;;5069936;28;20067;-61
2023/07/06 02:38:16;;;;;;;26.83;24.10;;;563.50;2432.00;;;;;;5069587;28;20031;-61
2023/07/06 02:40:42;;;;;;;29.88;26.63;;;563.50;2432.00;;;;;;5069071;28;20033;-62
2023/07/06 02:43:08;;;;;;;27.83;24.83;;;563.40;2432.00;;;;;;5084462;28;20036;-62
2023/07/06 02:45:35;;;;;;;27.80;25.10;;;563.30;2432.00;;;;;;5090818;28;20024;-61
2023/07/06 02:48:01;;;;;;;30.20;27.05;;;563.20;2432.00;;;;;;5090373;28;20028;-61
2023/07/06 02:50:27;;;;;;;28.95;26.02;;;538.50;2406.40;;;;;;5090004;28;20031;-61
2023/07/06 02:52:53;;;;;;;30.70;27.40;;;538.30;2406.40;;;;;;5089821;28;20078;-62
2023/07/06 02:55:19;;;;;;;30.95;27.75;;;538.20;2406.40;;;;;;5090188;28;20020;-63
2023/07/06 02:57:44;;;;;;;30.38;27.17;;;538.20;2406.40;;;;;;5090176;28;20028;-61
2023/07/06 03:00:16;;;;;;;31.92;26.83;;;538.40;2406.40;;;;;;5088867;28;20040;-66
2023/07/06 03:02:43;;;;;;;30.33;25.65;;;538.30;2406.40;;;;;;5088546;28;20066;-61
2023/07/06 03:05:10;;;;;;;30.17;27.10;;;538.50;2406.40;;;;;;5088265;28;20062;-61
2023/07/06 03:07:35;;;;;;;29.05;26.00;;;538.40;2406.40;;;;;;5069201;28;20236;-62
2023/07/06 03:10:07;;;;;;;28.35;25.38;;;563.20;2432.00;;;;;;5068825;28;20490;-67
2023/07/06 03:12:37;;;;;;;28.42;25.63;;;563.30;2432.00;;;;;;5068182;28;20035;-62
2023/07/06 03:15:10;;;;;;;29.75;26.75;;;563.40;2432.00;;;;;;5068436;28;20060;-66
2023/07/06 03:17:38;;;;;;;27.58;24.80;;;563.40;2432.00;;;;;;5069895;28;20115;-61
2023/07/06 03:20:13;;;;;;;30.75;27.73;;;563.60;2432.00;;;;;;5068585;28;20020;-62
2023/07/06 03:22:39;;;;;;;28.45;25.63;;;563.50;2432.00;;;;;;5069131;28;20108;-61
2023/07/06 03:25:05;;;;;;;29.85;25.92;;;563.60;2432.00;;;;;;5068627;28;20100;-61
2023/07/06 03:27:31;;;;;;;27.50;24.90;;;563.60;2432.00;;;;;;5069922;28;20032;-61
2023/07/06 03:29:57;;;;;;;29.85;26.83;;;563.60;2432.00;;;;;;5069676;28;20077;-61
2023/07/06 03:32:25;;;;;;;32.95;27.35;;;563.60;2432.00;;;;;;5068887;28;20483;-61
2023/07/06 03:34:50;;;;;;;30.10;26.90;;;563.70;2432.00;;;;;;5067670;28;20025;-63
2023/07/06 03:37:18;;;;;;;27.88;25.27;;;563.90;2432.00;;;;;;5068935;28;20032;-64
2023/07/06 03:39:47;;;;;;;30.17;26.95;;;564.10;2432.00;;;;;;5069308;28;20423;-62
2023/07/06 03:42:14;;;;;;;30.42;26.10;;;564.10;2432.00;;;;;;5069137;28;20049;-62
2023/07/06 03:44:40;;;;;;;32.22;28.08;;;588.90;2432.00;;;;;;5067687;28;20379;-61
2023/07/06 03:47:06;;;;;;;30.27;27.38;;;564.10;2432.00;;;;;;5066308;28;20036;-63
2023/07/06 03:49:34;;;;;;;29.92;26.90;;;564.00;2432.00;;;;;;5067869;28;20024;-61
2023/07/06 03:52:03;;;;;;;29.50;26.50;;;564.00;2432.00;;;;;;5066891;28;20028;-62
2023/07/06 03:54:31;;;;;;;32.03;26.10;;;564.10;2432.00;;;;;;5068624;28;20029;-62
2023/07/06 03:56:57;;;;;;;31.45;27.88;;;564.10;2432.00;;;;;;5068809;28;20032;-62
2023/07/06 03:59:23;;;;;;;28.00;25.23;;;564.10;2432.00;;;;;;5068835;28;20036;-61
2023/07/06 04:02:28;;;;;;;29.30;26.27;;;564.10;2432.00;;;;;;5082498;28;20023;-63
2023/07/06 04:05:43;;;;;;;26.92;24.17;;;564.10;2432.00;;;;;;5098641;28;20004;-63
2023/07/06 04:11:43;;;;;;;26.52;23.73;;;589.10;2432.00;;;;;;5016350;28;20048;-61
2023/07/06 04:14:14;;;;;;;27.40;23.65;;;589.40;2432.00;;;;;;4990508;28;20049;-63
2023/07/06 04:16:43;;;;;;;27.23;24.48;;;589.70;2432.00;;;;;;5008734;28;20069;-62
2023/07/06 04:19:28;;;;;;;26.50;23.65;;;614.60;2432.00;;;;;;5012579;28;20038;-62
2023/07/06 04:22:35;;;;;;;26.02;23.48;;;614.90;2432.00;;;;;;5013302;28;20038;-63
2023/07/06 04:28:14;;;;;;;27.27;23.70;;;;;;;;;;5007729;28;20041;-63
2023/07/06 04:30:42;;;;;;;26.73;24.02;;;;;;;;;;4991179;28;20018;-61
2023/07/06 04:33:11;;;;;;;27.65;24.73;;;;;;;;;;4991392;28;20125;-65
2023/07/06 04:35:37;;;;;;;29.95;24.10;;;;;;;;;;4992834;28;20042;-66
2023/07/06 04:38:03;;;;;;;25.13;22.73;;;;;;;;;;4997712;28;20037;-61
2023/07/06 04:40:29;;;;;;;23.70;21.30;;;742.40;2432.00;;;;;;5018942;28;20045;-62
2023/07/06 04:42:55;;;;;;;26.00;23.27;;;742.70;2432.00;;;;;;5020917;28;20041;-61
2023/07/06 04:45:26;;;;;;;24.25;21.75;;;768.80;2355.20;;;;;;5022496;28;20029;-61
2023/07/06 04:47:53;;;;;;;23.48;21.17;;;819.20;2201.60;;;;;;5040393;28;20040;-61
2023/07/06 04:50:23;;;;;;;23.67;21.38;;;844.80;2099.20;;;;;;5078502;28;20131;-64
2023/07/06 04:52:55;;;;;;;22.42;20.00;;;845.60;1996.80;;;;;;5067039;28;20532;-62
2023/07/06 04:55:26;;;;;;;23.05;20.67;;;871.00;1920.00;;;;;;5092993;28;20450;-65
2023/07/06 04:57:56;;;;;;;23.58;21.52;;;871.30;1868.80;;;;;;5092540;28;20020;-61
2023/07/06 05:00:26;;;;;;;21.88;19.77;;;896.80;1817.60;;;;;;5092197;28;20485;-60
2023/07/06 05:02:53;;;;;;;21.08;19.10;;;921.90;1766.40;;;;;;5091956;28;20131;-61
2023/07/06 05:05:20;;;;;;;21.50;19.60;;;922.40;1715.20;;;;;;5092220;28;20019;-61
2023/07/06 05:07:46;;;;;;;21.45;19.45;;;947.30;1689.60;;;;;;5092746;28;20055;-66
2023/07/06 05:10:13;;;;;;;23.20;20.90;;;948.00;1638.40;;;;;;5092763;28;20016;-62
2023/07/06 05:12:42;;;;;;;22.17;20.13;;;973.10;1612.80;;;;;;5092353;28;20616;-62
2023/07/06 05:15:08;;;;;;;21.55;19.83;;;973.20;1612.80;;;;;;5091919;28;20027;-61
2023/07/06 05:17:34;;;;;;;22.70;20.73;;;973.40;1612.80;;;;;;5092288;28;20024;-62
2023/07/06 05:20:00;;;;;;;21.45;19.65;;;998.70;1561.60;;;;;;5091915;28;20029;-62
2023/07/06 05:22:26;;;;;;;21.20;19.15;;;999.30;1536.00;;;;;;5091850;28;20111;-63
2023/07/06 05:24:52;;;;;;;20.85;19.05;;;1024.40;1510.40;;;;;;5091820;28;20103;-63
2023/07/06 05:27:19;;;;;;;22.05;20.17;;;1024.70;1484.80;;;;;;5092069;28;20458;-70
2023/07/06 05:29:44;;;;;;;21.17;19.48;;;1049.70;1484.80;;;;;;5092242;28;20432;-62
2023/07/06 05:32:10;;;;;;;23.92;21.55;;;1050.50;1408.00;;;;;;5092115;28;20018;-62
2023/07/06 05:34:36;;;;;;;24.55;22.05;;;1049.90;1459.20;;;;;;5092111;28;20130;-65
2023/07/06 05:37:02;;;;;;;22.42;20.55;;;1075.20;1408.00;;;;;;5092350;28;20020;-62
2023/07/06 05:39:28;;;;;;;24.50;22.35;;;1075.90;1356.80;;;;;;5091922;28;20089;-62
2023/07/06 05:41:54;;;;;;;23.13;21.23;;;1101.00;1356.80;;;;;;5074630;28;20048;-62
2023/07/06 05:44:19;;;;;;;23.30;21.48;;;1101.10;1356.80;;;;;;5071096;28;20029;-62
2023/07/06 05:46:45;;;;;;;22.98;21.02;;;1101.50;1331.20;;;;;;5069716;28;20467;-63
2023/07/06 05:49:11;;;;;;;23.38;21.67;;;1126.60;1331.20;;;;;;5071470;28;20024;-63
2023/07/06 05:51:36;;;;;;;24.35;22.25;;;1126.70;1305.60;;;;;;5071636;28;20085;-65
2023/07/06 05:54:02;;;;;;;23.63;21.52;;;1127.10;1305.60;;;;;;5071293;28;20024;-62
2023/07/06 05:56:31;;;;;;;22.75;20.75;;;1126.90;1305.60;;;;;;5071435;28;20029;-62
2023/07/06 05:58:59;;;;;;;24.10;22.05;;;1126.80;1305.60;;;;;;5071396;28;20116;-62
2023/07/06 06:01:25;;;;;;;25.80;23.70;;;1126.70;1331.20;;;;;;5071578;28;20037;-59
2023/07/06 06:03:52;;;;;;;26.08;23.98;;;1152.40;1280.00;;;;;;5071168;28;20044;-63
2023/07/06 06:06:20;;;;;;;26.77;24.75;;;1126.90;1305.60;;;;;;5071210;28;20494;-63
2023/07/06 06:08:47;;;;;;;28.42;26.17;;;1126.90;1331.20;;;;;;5071068;28;20029;-62
2023/07/06 06:11:15;;;;;;;27.73;25.52;;;1126.90;1331.20;;;;;;5066620;28;20024;-69
2023/07/06 06:13:43;;;;;;;28.17;26.08;;;1126.90;1305.60;;;;;;5069350;28;20119;-66
2023/07/06 06:16:11;;;;;;;29.05;26.35;;;1152.40;1280.00;;;;;;5069302;28;20033;-63
2023/07/06 06:18:39;;;;;;;28.95;26.70;;;1152.20;1280.00;;;;;;5069639;28;20064;-62
2023/07/06 06:21:06;;;;;;;30.90;28.35;;;1177.80;1228.80;;;;;;5069307;28;20040;-63
2023/07/06 06:23:32;;;;;;;28.95;26.63;;;1178.20;1203.20;;;;;;5069303;28;20027;-62
2023/07/06 06:25:58;;;;;;;29.95;27.42;;;1203.90;1203.20;;;;;;5068602;28;20390;-60
2023/07/06 06:28:25;;;;;;;31.67;29.27;;;1203.90;1177.60;;;;;;5069049;28;20111;-69
2023/07/06 06:30:51;;;;;;;27.52;25.38;;;;;;;;;;5069090;28;20032;-61
2023/07/06 06:33:20;;;;;;;28.92;26.58;;;1229.50;1152.00;;;;;;5069186;28;20482;-61
2023/07/06 06:35:46;;;;;;;29.73;27.42;;;1229.50;1152.00;;;;;;5068861;28;20028;-63
2023/07/06 06:38:13;;;;;;;29.48;26.90;;;1254.80;1152.00;;;;;;5068771;28;20025;-62
2023/07/06 06:40:39;;;;;;;27.83;25.80;;;1229.50;1126.40;;;;;;5059195;28;20033;-63
2023/07/06 06:43:05;;;;;;;29.02;26.67;;;1255.00;1126.40;;;;;;5065807;28;20064;-64
2023/07/06 06:45:31;;;;;;;30.25;27.90;;;1255.00;1126.40;;;;;;5068833;28;20062;-62
2023/07/06 06:47:57;;;;;;;28.83;26.65;;;1280.40;1100.80;;;;;;5074246;28;20012;-61
2023/07/06 06:50:23;;;;;;;29.42;27.33;;;1280.90;1100.80;;;;;;5088345;28;20031;-63
2023/07/06 06:52:49;;;;;;;28.48;26.38;;;1306.30;1075.20;;;;;;5087325;28;20020;-71
2023/07/06 06:55:16;;;;;;;30.42;27.98;;;1305.90;1100.80;;;;;;5085322;28;20611;-64
2023/07/06 06:57:43;;;;;;;30.52;27.90;;;1280.90;1100.80;;;;;;5086339;28;20396;-69
2023/07/06 07:00:09;;;;;;;30.38;27.95;;;1280.40;1100.80;;;;;;5088204;28;20565;-61
2023/07/06 07:02:38;;;;;;;30.58;28.25;;;1305.60;1075.20;;;;;;5082735;28;20119;-66
2023/07/06 07:05:05;;;;;;;29.73;27.40;;;1280.50;1100.80;;;;;;5087216;28;20059;-61
2023/07/06 07:07:31;;;;;;;28.65;26.45;;;1280.40;1100.80;;;;;;5087952;28;20044;-62
2023/07/06 07:09:56;;;;;;;28.42;26.15;;;1280.90;1075.20;;;;;;5087935;28;20024;-61
2023/07/06 07:12:25;;;;;;;27.52;25.55;;;1305.70;1049.60;;;;;;5087286;28;20028;-67
2023/07/06 07:14:50;;;;;;;29.02;26.70;;;1306.30;1049.60;;;;;;5086347;28;20024;-61
2023/07/06 07:17:16;;;;;;;29.00;25.95;;;1280.70;1075.20;;;;;;5084172;28;20038;-61
2023/07/06 07:19:42;;;;;;;27.75;25.60;;;1255.00;1075.20;;;;;;5087397;28;20024;-62
2023/07/06 07:22:07;;;;;;;28.25;26.23;;;1280.50;1049.60;;;;;;5087985;28;20035;-61
2023/07/06 07:24:33;;;;;;;27.98;25.65;;;1305.90;1024.00;;;;;;5087188;28;20024;-62
2023/07/06 07:27:00;;;;;;;24.35;22.30;;;1305.70;1024.00;;;;;;5087052;28;20345;-62
2023/07/06 07:29:26;;;;;;;25.52;23.65;;;1305.60;998.40;;;;;;5087384;28;20020;-62
2023/07/06 07:31:52;;;;;;;24.60;22.50;;;1280.70;1049.60;;;;;;5087277;28;20115;-61
2023/07/06 07:34:19;;;;;;;25.27;23.17;;;1255.00;1075.20;;;;;;5087698;28;20128;-61
2023/07/06 07:36:44;;;;;;;25.95;23.95;;;1229.50;1075.20;;;;;;5074035;28;20486;-64
2023/07/06 07:39:11;;;;;;;26.80;24.65;;;1255.00;1100.80;;;;;;5087321;28;20097;-61
2023/07/06 07:41:37;;;;;;;26.55;24.70;;;1280.20;1075.20;;;;;;5087142;28;20178;-61
2023/07/06 07:44:04;;;;;;;26.63;24.52;;;1280.90;1024.00;;;;;;5086932;28;20027;-61
2023/07/06 07:46:30;;;;;;;26.67;24.75;;;1280.70;1049.60;;;;;;5087489;28;20145;-62
2023/07/06 07:48:56;;;;;;;26.25;24.38;;;1280.70;1049.60;;;;;;5087362;28;20474;-61
2023/07/06 07:51:24;;;;;;;26.13;24.13;;;1306.00;1024.00;;;;;;5087740;28;20032;-63
2023/07/06 07:53:52;;;;;;;28.08;26.08;;;1306.20;1024.00;;;;;;5087567;28;20095;-61
2023/07/06 07:56:19;;;;;;;28.20;26.10;;;1331.60;998.40;;;;;;5087311;28;20039;-66
2023/07/06 07:58:47;;;;;;;28.38;25.95;;;1331.40;998.40;;;;;;5087152;28;20028;-61
2023/07/06 08:01:18;;;;;;;28.83;26.33;;;1331.70;998.40;;;;;;5086785;28;20501;-62
2023/07/06 08:03:44;;;;;;;26.15;24.25;;;1331.60;998.40;;;;;;5087234;28;20029;-61
2023/07/06 08:06:14;;;;;;;29.42;27.42;;;1306.30;998.40;;;;;;5087187;28;20031;-62
2023/07/06 08:08:42;;;;;;;28.75;26.42;;;1305.70;1049.60;;;;;;5087179;28;20031;-61
2023/07/06 08:11:11;;;;;;;25.50;23.70;;;1280.90;1024.00;;;;;;5089015;28;20036;-61
2023/07/06 08:13:37;;;;;;;28.27;26.27;;;1280.50;1049.60;;;;;;5091969;28;20024;-61
2023/07/06 08:16:04;;;;;;;28.15;25.85;;;1254.90;1075.20;;;;;;5091267;28;20077;-60
2023/07/06 08:18:31;;;;;;;27.30;25.35;;;1228.90;1100.80;;;;;;5080962;28;20508;-61
2023/07/06 08:20:57;;;;;;;27.00;25.08;;;1178.00;1126.40;;;;;;5087436;28;20473;-60
2023/07/06 08:23:27;;;;;;;23.83;22.05;;;1126.70;1228.80;;;;;;5090999;28;20099;-60
2023/07/06 08:25:54;;;;;;;26.67;24.35;;;1075.90;1254.40;;;;;;5090758;28;20038;-60
2023/07/06 08:28:31;;;;;;;24.55;21.98;;;1050.50;1305.60;;;;;;5091227;28;20024;-61
2023/07/06 08:31:01;;;;;;;24.65;22.58;;;1050.00;1305.60;;;;;;5091326;28;20397;-60
2023/07/06 08:33:27;;;;;;;25.50;23.30;;;999.30;1382.40;;;;;;5091244;28;20032;-61
2023/07/06 08:35:53;;;;;;;25.20;22.90;;;999.20;1408.00;;;;;;5083901;28;20107;-60
2023/07/06 08:38:19;;;;;;;23.60;21.67;;;999.00;1408.00;;;;;;5083994;28;20024;-60
2023/07/06 08:40:52;;;;;;;24.73;22.38;;;999.30;1382.40;;;;;;5086706;28;20534;-61
2023/07/06 08:43:26;;;;;;;23.75;21.70;;;999.00;1433.60;;;;;;5090235;28;20135;-59
2023/07/06 08:45:58;;;;;;;24.25;22.00;;;973.70;1433.60;;;;;;5091047;28;20028;-60
2023/07/06 08:48:26;;;;;;;25.60;23.15;;;973.10;1459.20;;;;;;5091239;28;20028;-63
2023/07/06 08:50:59;;;;;;;24.70;22.35;;;972.80;1459.20;;;;;;5092184;28;20028;-60
2023/07/06 08:53:32;;;;;;;21.45;19.75;;;947.60;1459.20;;;;;;5092775;28;20019;-61
2023/07/06 08:58:46;;;;;;;22.30;20.20;;;871.30;1561.60;;;;;;5092280;28;20016;-63
2023/07/06 09:01:16;;;;;;;21.33;19.45;;;896.30;1536.00;;;;;;5091875;28;20032;-60
2023/07/06 09:04:06;;;;;;;23.48;21.25;;;896.70;1587.20;;;;;;5092212;28;20152;-58
2023/07/06 09:06:37;;;;;;;22.98;20.88;;;896.40;1587.20;;;;;;5090988;28;20040;-58
2023/07/06 09:09:03;;;;;;;22.90;20.75;;;896.80;1587.20;;;;;;5092157;28;20020;-59
2023/07/06 09:11:33;;;;;;;22.65;20.67;;;896.70;1587.20;;;;;;5092061;28;20384;-59
2023/07/06 09:14:05;;;;;;;23.80;21.52;;;896.10;1612.80;;;;;;5091559;28;20024;-59
2023/07/06 09:16:45;;;;;;;24.63;22.52;;;896.20;1587.20;;;;;;5090853;28;20595;-64
2023/07/06 09:19:13;;;;;;;24.00;21.73;;;871.30;1612.80;;;;;;5091865;28;20051;-60
2023/07/06 09:21:40;;;;;;;25.27;23.02;;;871.10;1612.80;;;;;;5091812;28;20166;-60
2023/07/06 09:24:08;;;;;;;22.55;20.25;;;871.30;1612.80;;;;;;5091814;28;20094;-60
2023/07/06 09:26:35;;;;;;;23.63;21.42;;;896.10;1587.20;;;;;;5091489;28;20111;-60
2023/07/06 09:29:17;;;;;;;23.40;21.13;;;871.30;1612.80;;;;;;5086250;28;20017;-60
2023/07/06 09:31:44;;;;;;;23.83;21.50;;;871.00;1612.80;;;;;;5084936;28;20028;-60
2023/07/06 09:34:37;;;;;;;23.90;20.10;;;871.10;1587.20;;;;;;5091715;28;20103;-60
2023/07/06 09:37:03;;;;;;;23.52;19.17;;;871.10;1612.80;;;;;;5088226;28;20020;-60
2023/07/06 09:39:28;;;;;;;20.90;18.77;;;870.80;1612.80;;;;;;5080342;28;20047;-60
2023/07/06 09:41:54;;;;;;;21.60;19.55;;;845.40;1664.00;;;;;;5089221;28;20040;-60
2023/07/06 09:44:29;;;;;;;22.70;20.35;;;845.70;1664.00;;;;;;5091517;28;20020;-60
2023/07/06 09:46:59;;;;;;;22.20;19.80;;;845.60;1664.00;;;;;;5091626;28;20394;-61
2023/07/06 09:49:42;;;;;;;21.88;19.30;;;870.40;1664.00;;;;;;5092019;28;20028;-60
2023/07/06 09:52:15;;;;;;;20.35;18.55;;;870.60;1612.80;;;;;;5091728;28;20035;-59
2023/07/06 09:54:45;;;;;;;;;;;870.50;1612.80;;;;;;5091880;28;20398;-60
2023/07/06 09:57:14;;;;;;;21.15;19.05;;;870.40;1638.40;;;;;;5091370;28;20397;-60
2023/07/06 09:59:44;;;;;;;21.70;19.50;;;845.50;1689.60;;;;;;5091489;28;20422;-60
2023/07/06 10:02:56;;;;;;;20.75;18.77;;;844.90;1740.80;;;;;;5091196;28;20151;-60
2023/07/06 10:05:31;;;;;;;22.42;20.13;;;820.10;1740.80;;;;;;5008890;28;20476;-60
2023/07/06 10:08:17;;;;;;;22.15;19.45;;;820.10;1740.80;;;;;;5009249;28;20074;-60
2023/07/06 10:10:52;;;;;;;25.00;20.45;;;819.60;1766.40;;;;;;5008789;28;20092;-60
2023/07/06 10:13:43;;;;;;;22.20;19.85;;;819.80;1740.80;;;;;;4994217;28;20030;-60
2023/07/06 10:16:21;;;;;;;22.60;20.40;;;844.90;1766.40;;;;;;4986253;28;20041;-60
2023/07/06 10:18:52;;;;;;;24.60;22.35;;;845.60;1715.20;;;;;;5008769;28;20038;-60
2023/07/06 10:21:37;;;;;;;24.90;22.52;;;845.70;1740.80;;;;;;5008226;28;20037;-60
2023/07/06 10:24:23;;;;;;;24.50;22.30;;;870.50;1740.80;;;;;;5008538;28;20026;-60
2023/07/06 10:26:55;;;;;;;22.67;20.67;;;870.80;1740.80;;;;;;5008001;28;20026;-60
2023/07/06 10:29:40;;;;;;;24.52;22.23;;;870.90;1715.20;;;;;;5007997;28;20112;-60
2023/07/06 10:32:12;;;;;;;25.48;22.92;;;870.90;1689.60;;;;;;5008052;28;20053;-60
2023/07/06 10:34:48;;;;;;;24.10;21.27;;;870.90;1715.20;;;;;;5007950;28;20022;-60
2023/07/06 10:37:17;;;;;;;27.05;24.60;;;871.00;1689.60;;;;;;5007817;28;20033;-60
2023/07/06 10:39:42;;;;;;;30.08;27.08;;;871.00;1689.60;;;;;;5008245;28;20036;-60
2023/07/06 10:42:22;;;;;;;28.00;25.50;;;870.80;1638.40;;;;;;5053400;28;20044;-60
2023/07/06 10:44:52;;;;;;;28.73;26.00;;;845.50;1664.00;;;;;;5090154;28;20528;-60
2023/07/06 10:47:38;;;;;;;28.80;26.10;;;845.40;1689.60;;;;;;5090279;28;20032;-60
2023/07/06 10:50:19;;;;;;;28.00;25.33;;;845.40;1715.20;;;;;;5090135;28;20036;-60
2023/07/06 10:53:01;;;;;;;27.48;24.52;;;845.20;1740.80;;;;;;5090149;28;20051;-60
2023/07/06 10:55:35;;;;;;;29.52;26.50;;;845.00;1766.40;;;;;;5089948;28;20040;-63
2023/07/06 10:58:22;;;;;;;28.20;25.45;;;820.10;1740.80;;;;;;5089625;28;20390;-61
2023/07/06 11:00:49;;;;;;;29.75;27.10;;;819.80;1766.40;;;;;;5089519;28;20024;-60
2023/07/06 11:03:22;;;;;;;30.70;27.70;;;820.10;1766.40;;;;;;5090032;28;20039;-60
2023/07/06 11:06:06;;;;;;;31.67;28.27;;;845.10;1766.40;;;;;;5090080;28;20016;-61
2023/07/06 11:09:05;;;;;;;29.05;26.13;;;845.30;1740.80;;;;;;5089551;28;20031;-60
2023/07/06 11:11:54;;;;;;;30.13;27.15;;;870.40;1792.00;;;;;;5089027;28;20103;-60
2023/07/06 11:14:23;;;;;;;26.48;24.10;;;870.50;1740.80;;;;;;5007571;28;20385;-60
2023/07/06 11:17:08;;;;;;;28.33;25.73;;;870.70;1715.20;;;;;;5003601;28;20042;-62
2023/07/06 11:19:38;;;;;;;27.55;24.75;;;870.90;1715.20;;;;;;5001065;28;20092;-65
2023/07/06 11:22:13;;;;;;;30.90;27.73;;;870.50;1715.20;;;;;;5006925;28;20049;-61
2023/07/06 11:24:44;;;;;;;30.77;27.95;;;870.60;1664.00;;;;;;5007114;28;20084;-62
2023/07/06 11:27:36;;;;;;;31.98;29.30;;;870.50;1689.60;;;;;;5007315;28;20109;-62
2023/07/06 11:30:24;;;;;;;32.72;29.70;;;870.60;1664.00;;;;;;5006709;28;20112;-61
2023/07/06 11:33:00;;;;;;;30.95;28.30;;;870.50;1664.00;;;;;;5006305;28;20799;-61
2023/07/06 11:35:32;;;;;;;32.20;29.27;;;870.50;1689.60;;;;;;5006680;28;20109;-64
2023/07/06 11:38:04;;;;;;;34.17;31.23;;;870.40;1664.00;;;;;;5006990;28;20073;-60
2023/07/06 11:40:38;;;;;;;33.90;30.70;;;870.50;1689.60;;;;;;5006759;28;20053;-61
2023/07/06 11:43:18;;;;;;;30.85;28.13;;;870.50;1664.00;;;;;;5006028;28;20053;-62
2023/07/06 11:46:03;;;;;;;29.85;26.88;;;870.40;1715.20;;;;;;5006340;28;20449;-60
2023/07/06 11:48:49;;;;;;;32.05;29.05;;;845.70;1715.20;;;;;;4990645;28;20044;-62
2023/07/06 11:51:19;;;;;;;31.63;28.48;;;845.40;1689.60;;;;;;5042850;28;20050;-70
2023/07/06 11:56:39;;;;;;;30.83;27.98;;;845.60;1715.20;;;;;;5088885;28;20024;-61
2023/07/06 11:59:15;;;;;;;31.98;28.90;;;845.40;1715.20;;;;;;5089334;28;20450;-62
2023/07/06 12:01:57;;;;;;;29.70;26.92;;;845.40;1689.60;;;;;;5088578;28;20040;-61
2023/07/06 12:04:26;;;;;;;31.15;27.92;;;845.70;1740.80;;;;;;5089175;28;20016;-60
2023/07/06 12:06:53;;;;;;;29.23;26.45;;;870.40;1689.60;;;;;;5089034;28;20047;-61
2023/07/06 12:09:23;;;;;;;29.60;26.67;;;870.40;1689.60;;;;;;5088582;28;20111;-66
2023/07/06 12:12:15;;;;;;;28.65;26.05;;;845.40;1715.20;;;;;;5088909;28;20535;-61
2023/07/06 12:14:41;;;;;;;31.05;28.08;;;845.40;1715.20;;;;;;5088603;28;20028;-60
2023/07/06 12:17:11;;;;;;;27.83;25.25;;;845.20;1715.20;;;;;;5088987;28;20119;-60
2023/07/06 12:19:41;;;;;;;29.30;26.48;;;845.40;1715.20;;;;;;5088614;28;20077;-64
2023/07/06 12:22:18;;;;;;;28.48;25.65;;;845.40;1740.80;;;;;;5088895;28;20485;-61
2023/07/06 12:24:45;;;;;;;27.60;25.15;;;845.30;1740.80;;;;;;5088511;28;20501;-62
2023/07/06 12:27:14;;;;;;;29.33;26.45;;;845.60;1740.80;;;;;;5088123;28;20039;-63
2023/07/06 12:29:41;;;;;;;28.73;25.85;;;845.70;1766.40;;;;;;5088373;28;20562;-61
2023/07/06 12:32:19;;;;;;;31.35;28.15;;;845.20;1740.80;;;;;;5088331;28;20028;-58
2023/07/06 12:34:52;;;;;;;28.60;26.08;;;845.00;1766.40;;;;;;5089556;28;20020;-62
2023/07/06 12:37:21;;;;;;;30.02;27.00;;;820.00;1766.40;;;;;;5088681;28;20035;-67